sensor_id;sensor_type;location;lat;lon;timestamp;pressure;altitude;pressure_sealevel;temperature;humidity
67842;BME280;54642;59.126;37.876;2023-09-19T00:00:46;100628.00;;;11.74;63.58
67842;BME280;54642;59.126;37.876;2023-09-19T00:03:15;100639.25;;;11.74;63.75
67842;BME280;54642;59.126;37.876;2023-09-19T00:05:41;100616.75;;;11.64;63.87
67842;BME280;54642;59.126;37.876;2023-09-19T00:08:10;100610.69;;;11.60;64.25
67842;BME280;54642;59.126;37.876;2023-09-19T00:10:38;100633.19;;;11.68;64.52
67842;BME280;54642;59.126;37.876;2023-09-19T00:13:06;100609.81;;;11.55;64.48
67842;BME280;54642;59.126;37.876;2023-09-19T00:15:39;100599.44;;;11.55;64.55
67842;BME280;54642;59.126;37.876;2023-09-19T00:18:06;100571.75;;;11.42;64.69
67842;BME280;54642;59.126;37.876;2023-09-19T00:20:32;100599.44;;;11.60;64.76
67842;BME280;54642;59.126;37.876;2023-09-19T00:23:08;100611.53;;;11.66;64.71
67842;BME280;54642;59.126;37.876;2023-09-19T00:25:35;100611.56;;;11.61;64.47
67842;BME280;54642;59.126;37.876;2023-09-19T00:28:01;100599.44;;;11.63;64.60
67842;BME280;54642;59.126;37.876;2023-09-19T00:30:27;100595.97;;;11.64;64.41
67842;BME280;54642;59.126;37.876;2023-09-19T00:32:53;100589.94;;;11.59;64.39
67842;BME280;54642;59.126;37.876;2023-09-19T00:35:23;100606.34;;;11.66;64.27
67842;BME280;54642;59.126;37.876;2023-09-19T00:37:50;100608.94;;;11.66;64.11
67842;BME280;54642;59.126;37.876;2023-09-19T00:40:16;100585.59;;;11.58;64.08
67842;BME280;54642;59.126;37.876;2023-09-19T00:42:43;100607.22;;;11.68;64.12
67842;BME280;54642;59.126;37.876;2023-09-19T00:45:10;100608.09;;;11.68;63.96
67842;BME280;54642;59.126;37.876;2023-09-19T00:47:43;100595.09;;;11.60;63.92
67842;BME280;54642;59.126;37.876;2023-09-19T00:50:10;100601.19;;;11.70;63.95
67842;BME280;54642;59.126;37.876;2023-09-19T00:52:39;100583.88;;;11.60;63.79
67842;BME280;54642;59.126;37.876;2023-09-19T00:55:08;100595.97;;;11.67;63.79
67842;BME280;54642;59.126;37.876;2023-09-19T00:57:35;100607.22;;;11.72;63.43
67842;BME280;54642;59.126;37.876;2023-09-19T01:00:02;100602.03;;;11.72;63.48
67842;BME280;54642;59.126;37.876;2023-09-19T01:02:34;100604.63;;;11.72;63.38
67842;BME280;54642;59.126;37.876;2023-09-19T01:05:00;100606.34;;;11.67;63.32
67842;BME280;54642;59.126;37.876;2023-09-19T01:07:27;100602.91;;;11.68;63.62
67842;BME280;54642;59.126;37.876;2023-09-19T01:10:00;100592.53;;;11.57;63.95
67842;BME280;54642;59.126;37.876;2023-09-19T01:12:37;100608.97;;;11.67;63.89
67842;BME280;54642;59.126;37.876;2023-09-19T01:29:08;100585.59;;;11.61;64.12
67842;BME280;54642;59.126;37.876;2023-09-19T01:31:40;100564.84;;;11.55;63.96
67842;BME280;54642;59.126;37.876;2023-09-19T01:34:08;100583.00;;;11.62;63.95
67842;BME280;54642;59.126;37.876;2023-09-19T01:36:36;100579.56;;;11.57;64.23
67842;BME280;54642;59.126;37.876;2023-09-19T01:39:07;100572.63;;;11.53;64.45
67842;BME280;54642;59.126;37.876;2023-09-19T01:42:03;100574.34;;;11.54;64.39
67842;BME280;54642;59.126;37.876;2023-09-19T01:47:55;100572.63;;;11.42;64.50
67842;BME280;54642;59.126;37.876;2023-09-19T01:50:36;100567.44;;;11.44;64.82
67842;BME280;54642;59.126;37.876;2023-09-19T01:55:51;100564.84;;;11.42;64.39
67842;BME280;54642;59.126;37.876;2023-09-19T01:58:33;100546.69;;;11.35;64.47
67842;BME280;54642;59.126;37.876;2023-09-19T02:01:00;100561.38;;;11.43;64.50
67842;BME280;54642;59.126;37.876;2023-09-19T02:03:27;100557.06;;;11.39;64.87
67842;BME280;54642;59.126;37.876;2023-09-19T02:05:54;100532.00;;;11.32;64.93
67842;BME280;54642;59.126;37.876;2023-09-19T02:08:21;100550.16;;;11.40;65.04
67842;BME280;54642;59.126;37.876;2023-09-19T02:10:51;100561.38;;;11.43;65.41
67842;BME280;54642;59.126;37.876;2023-09-19T02:13:19;100555.34;;;11.40;65.30
67842;BME280;54642;59.126;37.876;2023-09-19T02:15:46;100555.31;;;11.37;65.55
67842;BME280;54642;59.126;37.876;2023-09-19T02:18:13;100535.44;;;11.26;65.55
67842;BME280;54642;59.126;37.876;2023-09-19T02:20:39;100531.13;;;11.25;65.66
67842;BME280;54642;59.126;37.876;2023-09-19T02:23:06;100512.97;;;11.15;65.97
67842;BME280;54642;59.126;37.876;2023-09-19T02:25:32;100541.47;;;11.41;65.84
67842;BME280;54642;59.126;37.876;2023-09-19T02:27:58;100546.66;;;11.44;65.90
67842;BME280;54642;59.126;37.876;2023-09-19T02:30:29;100528.53;;;11.38;65.57
67842;BME280;54642;59.126;37.876;2023-09-19T02:32:55;100540.59;;;11.51;65.65
67842;BME280;54642;59.126;37.876;2023-09-19T02:35:21;100541.47;;;11.52;65.71
67842;BME280;54642;59.126;37.876;2023-09-19T02:37:48;100532.81;;;11.54;65.80
67842;BME280;54642;59.126;37.876;2023-09-19T02:40:15;100532.81;;;11.54;65.84
67842;BME280;54642;59.126;37.876;2023-09-19T02:42:55;100522.44;;;11.57;65.76
67842;BME280;54642;59.126;37.876;2023-09-19T02:45:23;100525.03;;;11.60;65.72
67842;BME280;54642;59.126;37.876;2023-09-19T02:47:49;100515.50;;;11.55;65.74
67842;BME280;54642;59.126;37.876;2023-09-19T02:50:15;100525.03;;;11.56;65.81
67842;BME280;54642;59.126;37.876;2023-09-19T02:52:42;100506.91;;;11.47;65.95
67842;BME280;54642;59.126;37.876;2023-09-19T02:55:10;100512.94;;;11.50;66.21
67842;BME280;54642;59.126;37.876;2023-09-19T02:57:39;100487.84;;;11.37;66.34
67842;BME280;54642;59.126;37.876;2023-09-19T03:00:09;100506.91;;;11.45;66.20
67842;BME280;54642;59.126;37.876;2023-09-19T03:02:38;100517.25;;;11.48;66.81
67842;BME280;54642;59.126;37.876;2023-09-19T03:05:05;100511.22;;;11.41;66.70
67842;BME280;54642;59.126;37.876;2023-09-19T03:07:33;100505.16;;;11.41;66.75
67842;BME280;54642;59.126;37.876;2023-09-19T03:09:59;100528.50;;;11.52;66.93
67842;BME280;54642;59.126;37.876;2023-09-19T03:12:26;100504.28;;;11.37;66.96
67842;BME280;54642;59.126;37.876;2023-09-19T03:14:52;100516.41;;;11.38;67.21
67842;BME280;54642;59.126;37.876;2023-09-19T03:17:21;100506.91;;;11.36;67.38
67842;BME280;54642;59.126;37.876;2023-09-19T03:19:47;100506.03;;;11.35;67.42
67842;BME280;54642;59.126;37.876;2023-09-19T03:22:14;100529.38;;;11.44;67.84
67842;BME280;54642;59.126;37.876;2023-09-19T03:24:40;100516.41;;;11.37;68.00
67842;BME280;54642;59.126;37.876;2023-09-19T03:27:09;100528.50;;;11.45;68.01
67842;BME280;54642;59.126;37.876;2023-09-19T03:29:36;100532.84;;;11.47;68.41
67842;BME280;54642;59.126;37.876;2023-09-19T03:32:06;100529.38;;;11.48;68.37
67842;BME280;54642;59.126;37.876;2023-09-19T03:34:32;100535.41;;;11.53;68.74
67842;BME280;54642;59.126;37.876;2023-09-19T03:37:01;100508.63;;;11.43;68.62
67842;BME280;54642;59.126;37.876;2023-09-19T03:39:27;100516.41;;;11.54;68.76
67842;BME280;54642;59.126;37.876;2023-09-19T03:41:53;100501.69;;;11.50;68.91
67842;BME280;54642;59.126;37.876;2023-09-19T03:44:19;100499.97;;;11.50;68.88
67842;BME280;54642;59.126;37.876;2023-09-19T03:46:45;100506.88;;;11.53;69.18
67842;BME280;54642;59.126;37.876;2023-09-19T03:49:11;100499.97;;;11.50;69.36
67842;BME280;54642;59.126;37.876;2023-09-19T03:51:37;100497.38;;;11.49;69.78
67842;BME280;54642;59.126;37.876;2023-09-19T03:54:03;100495.63;;;11.46;69.74
67842;BME280;54642;59.126;37.876;2023-09-19T03:56:30;100505.13;;;11.59;69.88
67842;BME280;54642;59.126;37.876;2023-09-19T03:58:56;100505.97;;;11.69;70.08
67842;BME280;54642;59.126;37.876;2023-09-19T04:01:22;100477.47;;;11.51;70.08
67842;BME280;54642;59.126;37.876;2023-09-19T04:03:48;100483.50;;;11.63;69.98
67842;BME280;54642;59.126;37.876;2023-09-19T04:06:16;100488.66;;;11.71;70.07
67842;BME280;54642;59.126;37.876;2023-09-19T04:08:43;100503.34;;;11.81;70.08
67842;BME280;54642;59.126;37.876;2023-09-19T04:11:11;100499.88;;;11.82;70.31
67842;BME280;54642;59.126;37.876;2023-09-19T04:13:37;100469.63;;;11.69;70.22
67842;BME280;54642;59.126;37.876;2023-09-19T04:16:03;100497.28;;;11.79;70.33
67842;BME280;54642;59.126;37.876;2023-09-19T04:18:36;100499.84;;;11.86;70.38
67842;BME280;54642;59.126;37.876;2023-09-19T04:21:04;100492.94;;;11.83;70.50
67842;BME280;54642;59.126;37.876;2023-09-19T04:23:34;100494.66;;;11.89;70.73
67842;BME280;54642;59.126;37.876;2023-09-19T04:26:00;100493.81;;;11.93;70.91
67842;BME280;54642;59.126;37.876;2023-09-19T04:28:26;100478.22;;;11.88;70.57
67842;BME280;54642;59.126;37.876;2023-09-19T04:30:53;100496.38;;;12.04;70.55
67842;BME280;54642;59.126;37.876;2023-09-19T04:33:20;100500.69;;;12.06;70.65
67842;BME280;54642;59.126;37.876;2023-09-19T04:35:49;100474.75;;;11.97;70.79
67842;BME280;54642;59.126;37.876;2023-09-19T04:38:17;100484.25;;;12.01;70.53
67842;BME280;54642;59.126;37.876;2023-09-19T04:40:43;100474.75;;;11.97;70.60
67842;BME280;54642;59.126;37.876;2023-09-19T04:43:09;100479.06;;;12.04;70.60
67842;BME280;54642;59.126;37.876;2023-09-19T04:45:35;100476.44;;;12.07;70.61
67842;BME280;54642;59.126;37.876;2023-09-19T04:48:00;100475.56;;;12.11;70.56
67842;BME280;54642;59.126;37.876;2023-09-19T04:50:28;100471.22;;;12.13;70.36
67842;BME280;54642;59.126;37.876;2023-09-19T04:52:57;100509.25;;;12.36;70.44
67842;BME280;54642;59.126;37.876;2023-09-19T04:55:23;100479.81;;;12.26;70.17
67842;BME280;54642;59.126;37.876;2023-09-19T04:57:50;100482.38;;;12.35;70.05
67842;BME280;54642;59.126;37.876;2023-09-19T05:00:21;100492.69;;;12.52;69.90
67842;BME280;54642;59.126;37.876;2023-09-19T05:02:50;100495.28;;;12.52;69.86
67842;BME280;54642;59.126;37.876;2023-09-19T05:05:19;100493.53;;;12.54;69.79
67842;BME280;54642;59.126;37.876;2023-09-19T05:07:45;100495.22;;;12.62;69.70
67842;BME280;54642;59.126;37.876;2023-09-19T05:10:12;100472.69;;;12.59;69.37
67842;BME280;54642;59.126;37.876;2023-09-19T05:12:38;100489.97;;;12.68;69.31
67842;BME280;54642;59.126;37.876;2023-09-19T05:15:05;100490.81;;;12.71;69.09
67842;BME280;54642;59.126;37.876;2023-09-19T05:17:35;100480.38;;;12.77;69.16
67842;BME280;54642;59.126;37.876;2023-09-19T05:20:04;100476.94;;;12.75;69.10
67842;BME280;54642;59.126;37.876;2023-09-19T05:22:43;100470.84;;;12.76;68.62
67842;BME280;54642;59.126;37.876;2023-09-19T05:25:12;100460.44;;;12.78;68.33
67842;BME280;54642;59.126;37.876;2023-09-19T05:27:43;100463.78;;;12.91;68.38
67842;BME280;54642;59.126;37.876;2023-09-19T05:30:09;100447.31;;;12.95;67.83
67842;BME280;54642;59.126;37.876;2023-09-19T05:32:35;100439.41;;;13.06;67.72
67842;BME280;54642;59.126;37.876;2023-09-19T05:35:01;100452.25;;;13.20;67.08
67842;BME280;54642;59.126;37.876;2023-09-19T05:37:28;100435.78;;;13.21;67.11
67842;BME280;54642;59.126;37.876;2023-09-19T05:39:55;100448.53;;;13.50;66.31
67842;BME280;54642;59.126;37.876;2023-09-19T05:42:21;100434.81;;;13.34;66.27
67842;BME280;54642;59.126;37.876;2023-09-19T05:44:46;100450.38;;;13.40;66.03
67842;BME280;54642;59.126;37.876;2023-09-19T05:47:12;100433.94;;;13.33;66.16
67842;BME280;54642;59.126;37.876;2023-09-19T05:49:38;100434.84;;;13.31;66.10
67842;BME280;54642;59.126;37.876;2023-09-19T05:52:05;100444.25;;;13.43;65.83
67842;BME280;54642;59.126;37.876;2023-09-19T05:54:32;100435.59;;;13.44;65.73
67842;BME280;54642;59.126;37.876;2023-09-19T05:57:00;100447.72;;;13.45;65.53
67842;BME280;54642;59.126;37.876;2023-09-19T05:59:27;100430.38;;;13.44;65.54
67842;BME280;54642;59.126;37.876;2023-09-19T06:01:53;100415.56;;;13.49;65.20
67842;BME280;54642;59.126;37.876;2023-09-19T06:04:19;100414.63;;;13.56;65.00
67842;BME280;54642;59.126;37.876;2023-09-19T06:06:45;100434.38;;;13.74;65.08
67842;BME280;54642;59.126;37.876;2023-09-19T06:09:14;100429.88;;;13.87;64.45
67842;BME280;54642;59.126;37.876;2023-09-19T06:11:43;100412.63;;;13.77;64.25
67842;BME280;54642;59.126;37.876;2023-09-19T06:14:09;100405.59;;;13.85;64.04
67842;BME280;54642;59.126;37.876;2023-09-19T06:16:36;100420.16;;;14.00;64.07
67842;BME280;54642;59.126;37.876;2023-09-19T06:19:03;100389.84;;;13.92;63.66
67842;BME280;54642;59.126;37.876;2023-09-19T06:21:32;100417.50;;;14.04;63.60
67842;BME280;54642;59.126;37.876;2023-09-19T06:23:57;100405.44;;;13.96;63.71
67842;BME280;54642;59.126;37.876;2023-09-19T06:26:24;100417.38;;;14.14;63.41
67842;BME280;54642;59.126;37.876;2023-09-19T06:28:52;100416.41;;;14.21;63.20
67842;BME280;54642;59.126;37.876;2023-09-19T06:31:18;100384.47;;;14.06;62.88
67842;BME280;54642;59.126;37.876;2023-09-19T06:33:46;100403.19;;;14.33;62.98
67842;BME280;54642;59.126;37.876;2023-09-19T06:36:12;100384.94;;;14.33;63.13
67842;BME280;54642;59.126;37.876;2023-09-19T06:38:38;100403.91;;;14.43;62.83
67842;BME280;54642;59.126;37.876;2023-09-19T06:41:04;100397.03;;;14.39;62.95
67842;BME280;54642;59.126;37.876;2023-09-19T06:43:34;100398.66;;;14.44;62.88
67842;BME280;54642;59.126;37.876;2023-09-19T06:46:01;100392.63;;;14.42;62.91
67842;BME280;54642;59.126;37.876;2023-09-19T06:48:27;100395.91;;;14.54;62.42
67842;BME280;54642;59.126;37.876;2023-09-19T06:50:57;100378.47;;;14.59;62.58
67842;BME280;54642;59.126;37.876;2023-09-19T06:53:24;100382.53;;;14.75;62.48
67842;BME280;54642;59.126;37.876;2023-09-19T06:55:51;100385.84;;;14.88;62.06
67842;BME280;54642;59.126;37.876;2023-09-19T06:58:17;100370.28;;;14.80;61.92
67842;BME280;54642;59.126;37.876;2023-09-19T07:00:42;100381.25;;;15.01;62.17
67842;BME280;54642;59.126;37.876;2023-09-19T07:03:10;100381.91;;;15.12;61.76
67842;BME280;54642;59.126;37.876;2023-09-19T07:05:40;100387.06;;;15.15;61.47
67842;BME280;54642;59.126;37.876;2023-09-19T07:08:07;100340.94;;;15.16;61.57
67842;BME280;54642;59.126;37.876;2023-09-19T07:10:34;100356.34;;;15.30;60.99
67842;BME280;54642;59.126;37.876;2023-09-19T07:13:00;100374.50;;;15.36;60.85
67842;BME280;54642;59.126;37.876;2023-09-19T07:15:28;100342.56;;;15.21;61.15
67842;BME280;54642;59.126;37.876;2023-09-19T07:17:56;100368.16;;;15.49;60.99
67842;BME280;54642;59.126;37.876;2023-09-19T07:20:24;100352.59;;;15.43;60.84
67842;BME280;54642;59.126;37.876;2023-09-19T07:22:54;100366.22;;;15.57;60.78
67842;BME280;54642;59.126;37.876;2023-09-19T07:25:25;100356.44;;;15.69;60.34
67842;BME280;54642;59.126;37.876;2023-09-19T07:27:52;100356.88;;;15.89;60.18
67842;BME280;54642;59.126;37.876;2023-09-19T07:30:19;100336.91;;;15.87;59.92
67842;BME280;54642;59.126;37.876;2023-09-19T07:32:45;100357.72;;;15.90;59.79
67842;BME280;54642;59.126;37.876;2023-09-19T07:35:13;100333.38;;;15.88;59.64
67842;BME280;54642;59.126;37.876;2023-09-19T07:37:39;100327.38;;;15.84;59.52
67842;BME280;54642;59.126;37.876;2023-09-19T07:40:06;100347.94;;;15.99;59.08
67842;BME280;54642;59.126;37.876;2023-09-19T07:42:38;100340.91;;;16.01;59.37
67842;BME280;54642;59.126;37.876;2023-09-19T07:45:09;100344.41;;;16.00;59.17
67842;BME280;54642;59.126;37.876;2023-09-19T07:47:39;100330.81;;;15.86;58.91
67842;BME280;54642;59.126;37.876;2023-09-19T07:50:05;100341.47;;;15.77;59.22
67842;BME280;54642;59.126;37.876;2023-09-19T07:52:32;100338.94;;;15.72;59.64
67842;BME280;54642;59.126;37.876;2023-09-19T07:54:59;100341.84;;;15.58;59.59
67842;BME280;54642;59.126;37.876;2023-09-19T07:57:27;100332.38;;;15.53;59.57
67842;BME280;54642;59.126;37.876;2023-09-19T07:59:54;100345.03;;;15.71;59.13
67842;BME280;54642;59.126;37.876;2023-09-19T08:02:20;100341.63;;;15.68;59.17
67842;BME280;54642;59.126;37.876;2023-09-19T08:04:46;100342.28;;;15.79;59.38
67842;BME280;54642;59.126;37.876;2023-09-19T08:07:14;100341.38;;;15.81;59.01
67842;BME280;54642;59.126;37.876;2023-09-19T08:09:40;100320.22;;;15.92;59.15
67842;BME280;54642;59.126;37.876;2023-09-19T08:12:07;100331.88;;;16.15;58.77
67842;BME280;54642;59.126;37.876;2023-09-19T08:14:36;100333.16;;;16.34;58.28
67842;BME280;54642;59.126;37.876;2023-09-19T08:17:03;100314.28;;;16.23;57.99
67842;BME280;54642;59.126;37.876;2023-09-19T08:19:34;100326.47;;;16.24;58.47
67842;BME280;54642;59.126;37.876;2023-09-19T08:22:00;100334.34;;;16.23;58.56
67842;BME280;54642;59.126;37.876;2023-09-19T08:24:29;100306.53;;;16.18;58.29
67842;BME280;54642;59.126;37.876;2023-09-19T08:26:58;100314.00;;;16.34;58.06
67842;BME280;54642;59.126;37.876;2023-09-19T08:29:24;100317.47;;;16.34;57.88
67842;BME280;54642;59.126;37.876;2023-09-19T08:31:54;100314.69;;;16.42;58.05
67842;BME280;54642;59.126;37.876;2023-09-19T08:34:22;100321.34;;;16.54;57.67
67842;BME280;54642;59.126;37.876;2023-09-19T08:36:50;100308.94;;;16.62;57.70
67842;BME280;54642;59.126;37.876;2023-09-19T08:39:18;100292.44;;;16.60;57.58
67842;BME280;54642;59.126;37.876;2023-09-19T08:41:45;100278.91;;;16.75;57.42
67842;BME280;54642;59.126;37.876;2023-09-19T08:44:11;100284.59;;;16.93;56.66
67842;BME280;54642;59.126;37.876;2023-09-19T08:46:40;100288.69;;;17.03;56.70
67842;BME280;54642;59.126;37.876;2023-09-19T08:49:22;100266.66;;;17.10;56.63
67842;BME280;54642;59.126;37.876;2023-09-19T08:52:01;100280.56;;;17.12;57.14
67842;BME280;54642;59.126;37.876;2023-09-19T08:54:37;100279.13;;;17.01;56.82
67842;BME280;54642;59.126;37.876;2023-09-19T08:57:07;100268.97;;;16.90;56.99
67842;BME280;54642;59.126;37.876;2023-09-19T08:59:41;100256.78;;;16.89;57.42
67842;BME280;54642;59.126;37.876;2023-09-19T09:02:15;100248.91;;;16.90;57.62
67842;BME280;54642;59.126;37.876;2023-09-19T09:04:43;100240.91;;;16.95;57.57
67842;BME280;54642;59.126;37.876;2023-09-19T09:07:13;100234.06;;;16.91;57.13
67842;BME280;54642;59.126;37.876;2023-09-19T09:09:40;100240.25;;;16.88;57.35
67842;BME280;54642;59.126;37.876;2023-09-19T09:12:11;100247.47;;;16.77;57.07
67842;BME280;54642;59.126;37.876;2023-09-19T09:14:47;100241.22;;;16.83;57.50
67842;BME280;54642;59.126;37.876;2023-09-19T09:17:16;100232.50;;;16.84;57.65
67842;BME280;54642;59.126;37.876;2023-09-19T09:19:46;100230.63;;;16.89;57.40
67842;BME280;54642;59.126;37.876;2023-09-19T09:22:15;100231.44;;;16.91;57.16
67842;BME280;54642;59.126;37.876;2023-09-19T09:24:55;100245.50;;;16.87;56.98
67842;BME280;54642;59.126;37.876;2023-09-19T09:27:27;100251.88;;;16.76;57.38
67842;BME280;54642;59.126;37.876;2023-09-19T09:29:53;100238.16;;;16.67;57.32
67842;BME280;54642;59.126;37.876;2023-09-19T09:32:30;100215.00;;;16.53;57.57
67842;BME280;54642;59.126;37.876;2023-09-19T09:35:00;100239.00;;;16.69;57.29
67842;BME280;54642;59.126;37.876;2023-09-19T09:37:27;100212.00;;;16.67;57.74
67842;BME280;54642;59.126;37.876;2023-09-19T09:40:00;100222.13;;;16.79;57.34
67842;BME280;54642;59.126;37.876;2023-09-19T09:42:42;100197.50;;;16.55;57.23
67842;BME280;54642;59.126;37.876;2023-09-19T09:45:23;100212.34;;;16.54;57.57
67842;BME280;54642;59.126;37.876;2023-09-19T09:48:01;100231.38;;;16.59;57.41
67842;BME280;54642;59.126;37.876;2023-09-19T09:50:49;100229.63;;;16.60;57.73
67842;BME280;54642;59.126;37.876;2023-09-19T09:53:30;100227.97;;;16.56;57.74
67842;BME280;54642;59.126;37.876;2023-09-19T09:56:06;100238.69;;;16.47;57.89
67842;BME280;54642;59.126;37.876;2023-09-19T09:58:37;100217.16;;;16.37;58.43
67842;BME280;54642;59.126;37.876;2023-09-19T10:01:06;100222.19;;;16.45;58.50
67842;BME280;54642;59.126;37.876;2023-09-19T10:03:39;100224.81;;;16.45;58.36
67842;BME280;54642;59.126;37.876;2023-09-19T10:06:14;100220.56;;;16.41;58.44
67842;BME280;54642;59.126;37.876;2023-09-19T10:09:08;100194.09;;;16.18;58.75
67842;BME280;54642;59.126;37.876;2023-09-19T10:11:42;100225.34;;;16.25;58.76
67842;BME280;54642;59.126;37.876;2023-09-19T10:14:11;100203.06;;;16.10;59.29
67842;BME280;54642;59.126;37.876;2023-09-19T10:16:45;100217.59;;;16.20;59.27
67842;BME280;54642;59.126;37.876;2023-09-19T10:19:16;100227.31;;;16.15;59.53
67842;BME280;54642;59.126;37.876;2023-09-19T10:21:50;100219.69;;;16.06;59.84
67842;BME280;54642;59.126;37.876;2023-09-19T10:24:17;100201.63;;;15.96;60.10
67842;BME280;54642;59.126;37.876;2023-09-19T10:26:45;100172.00;;;15.97;60.14
67842;BME280;54642;59.126;37.876;2023-09-19T10:29:14;100193.72;;;15.99;60.18
67842;BME280;54642;59.126;37.876;2023-09-19T10:31:42;100171.28;;;15.91;60.24
67842;BME280;54642;59.126;37.876;2023-09-19T10:34:17;100190.78;;;16.13;59.99
67842;BME280;54642;59.126;37.876;2023-09-19T10:36:46;100170.03;;;16.06;59.72
67842;BME280;54642;59.126;37.876;2023-09-19T10:39:15;100194.94;;;16.20;59.73
67842;BME280;54642;59.126;37.876;2023-09-19T10:41:51;100159.56;;;16.06;59.90
67842;BME280;54642;59.126;37.876;2023-09-19T10:44:23;100177.56;;;16.18;59.69
67842;BME280;54642;59.126;37.876;2023-09-19T10:46:51;100179.19;;;16.22;59.90
67842;BME280;54642;59.126;37.876;2023-09-19T10:49:19;100175.72;;;16.22;60.01
67842;BME280;54642;59.126;37.876;2023-09-19T10:51:47;100172.13;;;16.26;60.00
67842;BME280;54642;59.126;37.876;2023-09-19T10:54:17;100179.91;;;16.27;59.77
67842;BME280;54642;59.126;37.876;2023-09-19T10:56:49;100177.41;;;16.24;59.92
67842;BME280;54642;59.126;37.876;2023-09-19T10:59:17;100183.47;;;16.26;59.93
67842;BME280;54642;59.126;37.876;2023-09-19T11:04:35;100177.44;;;16.23;60.07
67842;BME280;54642;59.126;37.876;2023-09-19T11:07:07;100174.81;;;16.24;59.91
67842;BME280;54642;59.126;37.876;2023-09-19T11:09:53;100179.03;;;16.28;59.94
67842;BME280;54642;59.126;37.876;2023-09-19T11:15:02;100169.31;;;16.33;59.78
67842;BME280;54642;59.126;37.876;2023-09-19T11:30:48;100143.81;;;16.09;60.25
67842;BME280;54642;59.126;37.876;2023-09-19T11:33:19;100136.78;;;16.11;60.36
67842;BME280;54642;59.126;37.876;2023-09-19T11:36:17;100135.75;;;16.16;60.32
67842;BME280;54642;59.126;37.876;2023-09-19T11:43:48;100124.91;;;16.32;60.29
67842;BME280;54642;59.126;37.876;2023-09-19T11:46:16;100128.50;;;16.28;60.35
67842;BME280;54642;59.126;37.876;2023-09-19T11:48:51;100109.31;;;16.27;60.28
67842;BME280;54642;59.126;37.876;2023-09-19T11:51:24;100115.53;;;16.23;60.43
67842;BME280;54642;59.126;37.876;2023-09-19T11:53:57;100110.13;;;16.29;60.05
67842;BME280;54642;59.126;37.876;2023-09-19T11:56:27;100091.00;;;16.27;59.88
67842;BME280;54642;59.126;37.876;2023-09-19T11:58:55;100066.63;;;16.27;59.37
67842;BME280;54642;59.126;37.876;2023-09-19T12:01:33;100075.72;;;16.13;59.47
67842;BME280;54642;59.126;37.876;2023-09-19T12:04:01;100092.66;;;16.31;60.07
67842;BME280;54642;59.126;37.876;2023-09-19T12:06:30;100104.56;;;16.42;59.57
67842;BME280;54642;59.126;37.876;2023-09-19T12:08:58;100067.38;;;16.32;59.57
67842;BME280;54642;59.126;37.876;2023-09-19T12:11:31;100056.38;;;16.20;59.69
67842;BME280;54642;59.126;37.876;2023-09-19T12:13:59;100088.97;;;16.38;59.33
67842;BME280;54642;59.126;37.876;2023-09-19T12:16:26;100090.13;;;16.28;59.64
67842;BME280;54642;59.126;37.876;2023-09-19T12:18:56;100076.34;;;16.22;59.68
67842;BME280;54642;59.126;37.876;2023-09-19T12:21:28;100063.59;;;16.11;60.03
67842;BME280;54642;59.126;37.876;2023-09-19T12:24:05;100075.66;;;16.15;60.26
67842;BME280;54642;59.126;37.876;2023-09-19T12:26:41;100049.00;;;16.02;60.28
67842;BME280;54642;59.126;37.876;2023-09-19T12:29:14;100058.41;;;16.09;59.81
67842;BME280;54642;59.126;37.876;2023-09-19T12:31:55;100053.16;;;16.09;60.04
67842;BME280;54642;59.126;37.876;2023-09-19T12:34:27;100035.06;;;16.03;59.92
67842;BME280;54642;59.126;37.876;2023-09-19T12:37:13;100036.63;;;16.09;59.96
67842;BME280;54642;59.126;37.876;2023-09-19T12:39:50;100032.41;;;16.05;60.26
67842;BME280;54642;59.126;37.876;2023-09-19T12:42:19;99991.16;;;15.85;60.56
67842;BME280;54642;59.126;37.876;2023-09-19T12:44:47;100027.91;;;16.10;60.62
67842;BME280;54642;59.126;37.876;2023-09-19T12:47:18;100024.44;;;16.08;60.25
67842;BME280;54642;59.126;37.876;2023-09-19T12:52:46;100001.22;;;15.97;60.45
67842;BME280;54642;59.126;37.876;2023-09-19T12:55:25;99991.81;;;15.91;60.59
67842;BME280;54642;59.126;37.876;2023-09-19T13:00:38;99989.25;;;15.90;60.58
67842;BME280;54642;59.126;37.876;2023-09-19T13:05:58;100010.81;;;15.98;60.71
67842;BME280;54642;59.126;37.876;2023-09-19T13:08:31;99984.94;;;15.89;60.89
67842;BME280;54642;59.126;37.876;2023-09-19T13:13:44;99995.38;;;15.89;61.00
67842;BME280;54642;59.126;37.876;2023-09-19T13:16:11;99994.56;;;15.87;60.93
67842;BME280;54642;59.126;37.876;2023-09-19T13:18:44;100005.75;;;15.92;61.24
67842;BME280;54642;59.126;37.876;2023-09-19T13:21:16;100004.00;;;15.92;61.25
67842;BME280;54642;59.126;37.876;2023-09-19T13:23:54;99981.53;;;15.85;61.20
67842;BME280;54642;59.126;37.876;2023-09-19T13:26:25;99977.31;;;15.81;61.11
67842;BME280;54642;59.126;37.876;2023-09-19T13:28:51;99982.28;;;15.90;60.96
67842;BME280;54642;59.126;37.876;2023-09-19T13:31:17;99958.19;;;15.79;60.87
67842;BME280;54642;59.126;37.876;2023-09-19T13:33:44;99959.91;;;15.80;60.92
67842;BME280;54642;59.126;37.876;2023-09-19T13:36:13;99936.66;;;15.69;60.81
67842;BME280;54642;59.126;37.876;2023-09-19T13:38:42;99964.78;;;15.92;61.21
67842;BME280;54642;59.126;37.876;2023-09-19T13:41:10;99950.19;;;15.85;60.92
67842;BME280;54642;59.126;37.876;2023-09-19T13:43:37;99950.00;;;15.91;61.07
67842;BME280;54642;59.126;37.876;2023-09-19T13:46:05;99956.00;;;15.95;61.00